sensor_id;sensor_type;location;lat;lon;timestamp;temperature;humidity
21244;DHT22;10780;50.942;4.028;2022-12-07T00:00:41;5.70;99.90
21244;DHT22;10780;50.942;4.028;2022-12-07T00:03:07;5.70;99.90
21244;DHT22;10780;50.942;4.028;2022-12-07T00:05:32;5.70;99.90
21244;DHT22;10780;50.942;4.028;2022-12-07T00:07:58;5.70;99.90
21244;DHT22;10780;50.942;4.028;2022-12-07T00:10:23;5.70;99.90
21244;DHT22;10780;50.942;4.028;2022-12-07T00:12:49;5.70;99.90
21244;DHT22;10780;50.942;4.028;2022-12-07T00:15:15;5.70;99.90
21244;DHT22;10780;50.942;4.028;2022-12-07T00:17:41;5.80;99.90
21244;DHT22;10780;50.942;4.028;2022-12-07T00:20:07;5.80;99.90
21244;DHT22;10780;50.942;4.028;2022-12-07T00:22:33;5.80;99.90
21244;DHT22;10780;50.942;4.028;2022-12-07T00:24:58;5.70;99.90
21244;DHT22;10780;50.942;4.028;2022-12-07T00:27:24;5.60;99.90
21244;DHT22;10780;50.942;4.028;2022-12-07T00:29:49;5.70;99.90
21244;DHT22;10780;50.942;4.028;2022-12-07T00:32:15;5.60;99.90
21244;DHT22;10780;50.942;4.028;2022-12-07T00:34:40;5.60;99.90
21244;DHT22;10780;50.942;4.028;2022-12-07T00:37:06;5.70;99.90
21244;DHT22;10780;50.942;4.028;2022-12-07T00:39:32;5.60;99.90
21244;DHT22;10780;50.942;4.028;2022-12-07T00:41:57;5.70;99.90
21244;DHT22;10780;50.942;4.028;2022-12-07T00:44:23;5.70;99.90
21244;DHT22;10780;50.942;4.028;2022-12-07T00:46:48;5.70;99.90
21244;DHT22;10780;50.942;4.028;2022-12-07T00:49:14;5.80;99.90
21244;DHT22;10780;50.942;4.028;2022-12-07T00:51:40;5.80;99.90
21244;DHT22;10780;50.942;4.028;2022-12-07T00:54:05;5.80;99.90
21244;DHT22;10780;50.942;4.028;2022-12-07T00:56:31;5.80;99.90
21244;DHT22;10780;50.942;4.028;2022-12-07T00:59:02;5.80;99.90
21244;DHT22;10780;50.942;4.028;2022-12-07T01:01:31;5.70;99.90
21244;DHT22;10780;50.942;4.028;2022-12-07T01:03:57;5.80;99.90
21244;DHT22;10780;50.942;4.028;2022-12-07T01:06:24;5.90;99.90
21244;DHT22;10780;50.942;4.028;2022-12-07T01:08:50;5.90;99.90
21244;DHT22;10780;50.942;4.028;2022-12-07T01:11:19;6.00;99.90
21244;DHT22;10780;50.942;4.028;2022-12-07T01:13:45;6.00;99.90
21244;DHT22;10780;50.942;4.028;2022-12-07T01:16:13;5.90;99.90
21244;DHT22;10780;50.942;4.028;2022-12-07T01:18:40;5.90;99.90
21244;DHT22;10780;50.942;4.028;2022-12-07T01:23:34;6.00;99.90
21244;DHT22;10780;50.942;4.028;2022-12-07T01:26:03;6.10;99.90
21244;DHT22;10780;50.942;4.028;2022-12-07T01:28:29;6.20;99.90
21244;DHT22;10780;50.942;4.028;2022-12-07T01:33:27;6.40;99.90
21244;DHT22;10780;50.942;4.028;2022-12-07T01:35:54;6.30;99.90
21244;DHT22;10780;50.942;4.028;2022-12-07T01:38:19;6.20;99.90
21244;DHT22;10780;50.942;4.028;2022-12-07T01:40:45;6.10;99.90
21244;DHT22;10780;50.942;4.028;2022-12-07T01:43:16;6.00;99.90
21244;DHT22;10780;50.942;4.028;2022-12-07T01:45:43;6.00;99.90
21244;DHT22;10780;50.942;4.028;2022-12-07T01:48:10;6.10;99.90
21244;DHT22;10780;50.942;4.028;2022-12-07T01:50:38;6.10;99.90
21244;DHT22;10780;50.942;4.028;2022-12-07T01:53:06;6.00;99.90
21244;DHT22;10780;50.942;4.028;2022-12-07T01:55:37;5.90;99.90
21244;DHT22;10780;50.942;4.028;2022-12-07T01:58:04;5.90;99.90
21244;DHT22;10780;50.942;4.028;2022-12-07T02:00:29;5.80;99.90
21244;DHT22;10780;50.942;4.028;2022-12-07T02:03:10;5.70;99.90
21244;DHT22;10780;50.942;4.028;2022-12-07T02:05:38;5.70;99.90
21244;DHT22;10780;50.942;4.028;2022-12-07T02:08:06;5.60;99.90
21244;DHT22;10780;50.942;4.028;2022-12-07T02:10:33;5.70;99.90
21244;DHT22;10780;50.942;4.028;2022-12-07T02:13:05;5.70;99.90
21244;DHT22;10780;50.942;4.028;2022-12-07T02:29:27;5.60;99.90
21244;DHT22;10780;50.942;4.028;2022-12-07T02:32:16;5.50;99.90
21244;DHT22;10780;50.942;4.028;2022-12-07T02:34:50;5.50;99.90
21244;DHT22;10780;50.942;4.028;2022-12-07T02:37:29;5.50;99.90
21244;DHT22;10780;50.942;4.028;2022-12-07T02:42:42;5.60;99.90
21244;DHT22;10780;50.942;4.028;2022-12-07T02:45:12;5.60;99.90
21244;DHT22;10780;50.942;4.028;2022-12-07T02:47:40;5.50;99.90
21244;DHT22;10780;50.942;4.028;2022-12-07T02:50:07;5.50;99.90
21244;DHT22;10780;50.942;4.028;2022-12-07T02:52:33;5.40;99.90
21244;DHT22;10780;50.942;4.028;2022-12-07T02:54:59;5.40;99.90
21244;DHT22;10780;50.942;4.028;2022-12-07T02:58:05;5.30;99.90
21244;DHT22;10780;50.942;4.028;2022-12-07T03:00:41;5.30;99.90
21244;DHT22;10780;50.942;4.028;2022-12-07T03:03:11;5.20;99.90
21244;DHT22;10780;50.942;4.028;2022-12-07T03:05:56;5.10;99.90
21244;DHT22;10780;50.942;4.028;2022-12-07T03:11:12;5.30;99.90
21244;DHT22;10780;50.942;4.028;2022-12-07T03:13:50;5.40;99.90
21244;DHT22;10780;50.942;4.028;2022-12-07T03:18:53;5.40;99.90
21244;DHT22;10780;50.942;4.028;2022-12-07T03:21:26;5.30;99.90
21244;DHT22;10780;50.942;4.028;2022-12-07T03:23:56;5.40;99.90
21244;DHT22;10780;50.942;4.028;2022-12-07T03:26:31;5.60;99.90
21244;DHT22;10780;50.942;4.028;2022-12-07T03:29:01;5.70;99.90
21244;DHT22;10780;50.942;4.028;2022-12-07T03:31:32;5.80;99.90
21244;DHT22;10780;50.942;4.028;2022-12-07T03:34:12;5.80;99.90
21244;DHT22;10780;50.942;4.028;2022-12-07T03:36:53;5.60;99.90
21244;DHT22;10780;50.942;4.028;2022-12-07T03:41:50;5.40;99.90
21244;DHT22;10780;50.942;4.028;2022-12-07T03:44:16;5.40;99.90
21244;DHT22;10780;50.942;4.028;2022-12-07T03:46:50;5.40;99.90
21244;DHT22;10780;50.942;4.028;2022-12-07T03:49:44;5.40;99.90
21244;DHT22;10780;50.942;4.028;2022-12-07T03:57:15;5.30;99.90
21244;DHT22;10780;50.942;4.028;2022-12-07T03:59:43;5.40;99.90
21244;DHT22;10780;50.942;4.028;2022-12-07T04:02:11;5.20;99.90
21244;DHT22;10780;50.942;4.028;2022-12-07T04:04:38;5.00;99.90
21244;DHT22;10780;50.942;4.028;2022-12-07T04:07:04;5.10;99.90
21244;DHT22;10780;50.942;4.028;2022-12-07T04:09:30;5.20;99.90
21244;DHT22;10780;50.942;4.028;2022-12-07T04:11:55;5.30;99.90
21244;DHT22;10780;50.942;4.028;2022-12-07T04:14:21;5.40;99.90
21244;DHT22;10780;50.942;4.028;2022-12-07T04:16:55;5.40;99.90
21244;DHT22;10780;50.942;4.028;2022-12-07T04:19:28;5.40;99.90
21244;DHT22;10780;50.942;4.028;2022-12-07T04:21:55;5.40;99.90
21244;DHT22;10780;50.942;4.028;2022-12-07T04:24:22;5.40;99.90
21244;DHT22;10780;50.942;4.028;2022-12-07T04:26:48;5.30;99.90
21244;DHT22;10780;50.942;4.028;2022-12-07T04:29:14;5.20;99.90
21244;DHT22;10780;50.942;4.028;2022-12-07T04:31:41;5.20;99.90
21244;DHT22;10780;50.942;4.028;2022-12-07T04:34:07;5.20;99.90
21244;DHT22;10780;50.942;4.028;2022-12-07T04:36:33;5.10;99.90
21244;DHT22;10780;50.942;4.028;2022-12-07T04:38:59;5.00;99.90
21244;DHT22;10780;50.942;4.028;2022-12-07T04:41:25;5.00;99.90
21244;DHT22;10780;50.942;4.028;2022-12-07T04:43:58;4.90;99.90
21244;DHT22;10780;50.942;4.028;2022-12-07T04:46:25;4.90;99.90
21244;DHT22;10780;50.942;4.028;2022-12-07T04:48:52;4.90;99.90
21244;DHT22;10780;50.942;4.028;2022-12-07T04:51:36;4.90;99.90
21244;DHT22;10780;50.942;4.028;2022-12-07T04:54:02;4.90;99.90
21244;DHT22;10780;50.942;4.028;2022-12-07T04:56:28;5.00;99.90
21244;DHT22;10780;50.942;4.028;2022-12-07T04:58:54;4.90;99.90
21244;DHT22;10780;50.942;4.028;2022-12-07T05:01:21;4.80;99.90
21244;DHT22;10780;50.942;4.028;2022-12-07T05:03:48;4.80;99.90
21244;DHT22;10780;50.942;4.028;2022-12-07T05:06:14;4.70;99.90
21244;DHT22;10780;50.942;4.028;2022-12-07T05:08:40;4.80;99.90
21244;DHT22;10780;50.942;4.028;2022-12-07T05:11:07;4.80;99.90
21244;DHT22;10780;50.942;4.028;2022-12-07T05:13:33;4.70;99.90
21244;DHT22;10780;50.942;4.028;2022-12-07T05:15:59;4.80;99.90
21244;DHT22;10780;50.942;4.028;2022-12-07T05:18:25;4.80;99.90
21244;DHT22;10780;50.942;4.028;2022-12-07T05:20:51;4.80;99.90
21244;DHT22;10780;50.942;4.028;2022-12-07T05:23:17;4.80;99.90
21244;DHT22;10780;50.942;4.028;2022-12-07T05:25:43;4.90;99.90
21244;DHT22;10780;50.942;4.028;2022-12-07T05:28:09;5.00;99.90
21244;DHT22;10780;50.942;4.028;2022-12-07T05:30:34;5.20;99.90
21244;DHT22;10780;50.942;4.028;2022-12-07T05:33:00;5.20;99.90
21244;DHT22;10780;50.942;4.028;2022-12-07T05:35:26;5.20;99.90
21244;DHT22;10780;50.942;4.028;2022-12-07T05:37:51;5.10;99.90
21244;DHT22;10780;50.942;4.028;2022-12-07T05:40:17;5.00;99.90
21244;DHT22;10780;50.942;4.028;2022-12-07T05:42:44;4.90;99.90
21244;DHT22;10780;50.942;4.028;2022-12-07T05:45:10;4.90;99.90
21244;DHT22;10780;50.942;4.028;2022-12-07T05:47:36;4.90;99.90
21244;DHT22;10780;50.942;4.028;2022-12-07T05:50:03;5.00;99.90
21244;DHT22;10780;50.942;4.028;2022-12-07T05:52:28;5.00;99.90
21244;DHT22;10780;50.942;4.028;2022-12-07T05:54:54;5.10;99.90
21244;DHT22;10780;50.942;4.028;2022-12-07T05:57:20;5.10;99.90
21244;DHT22;10780;50.942;4.028;2022-12-07T05:59:45;5.30;99.90
21244;DHT22;10780;50.942;4.028;2022-12-07T06:02:13;5.40;99.90
21244;DHT22;10780;50.942;4.028;2022-12-07T06:04:41;5.50;99.90
21244;DHT22;10780;50.942;4.028;2022-12-07T06:07:08;5.70;99.90
21244;DHT22;10780;50.942;4.028;2022-12-07T06:09:34;5.80;99.90
21244;DHT22;10780;50.942;4.028;2022-12-07T06:12:01;5.80;99.90
21244;DHT22;10780;50.942;4.028;2022-12-07T06:14:45;6.00;99.90
21244;DHT22;10780;50.942;4.028;2022-12-07T06:17:12;5.90;99.90
21244;DHT22;10780;50.942;4.028;2022-12-07T06:19:38;6.00;99.90
21244;DHT22;10780;50.942;4.028;2022-12-07T06:22:04;5.90;99.90
21244;DHT22;10780;50.942;4.028;2022-12-07T06:24:31;5.80;99.90
21244;DHT22;10780;50.942;4.028;2022-12-07T06:26:57;5.70;99.90
21244;DHT22;10780;50.942;4.028;2022-12-07T06:29:23;5.60;99.90
21244;DHT22;10780;50.942;4.028;2022-12-07T06:31:49;5.50;99.90
21244;DHT22;10780;50.942;4.028;2022-12-07T06:34:17;5.40;99.90
21244;DHT22;10780;50.942;4.028;2022-12-07T06:36:44;5.40;99.90
21244;DHT22;10780;50.942;4.028;2022-12-07T06:39:10;5.60;99.90
21244;DHT22;10780;50.942;4.028;2022-12-07T06:41:37;5.80;99.90
21244;DHT22;10780;50.942;4.028;2022-12-07T06:44:06;6.00;99.90
21244;DHT22;10780;50.942;4.028;2022-12-07T06:46:32;6.00;99.90
21244;DHT22;10780;50.942;4.028;2022-12-07T06:48:58;5.80;99.90
21244;DHT22;10780;50.942;4.028;2022-12-07T06:51:24;5.90;99.90
21244;DHT22;10780;50.942;4.028;2022-12-07T06:53:50;6.00;99.90
21244;DHT22;10780;50.942;4.028;2022-12-07T06:56:15;6.00;99.90
21244;DHT22;10780;50.942;4.028;2022-12-07T06:58:41;5.80;99.90
21244;DHT22;10780;50.942;4.028;2022-12-07T07:01:11;5.70;99.90
21244;DHT22;10780;50.942;4.028;2022-12-07T07:03:41;5.50;99.90
21244;DHT22;10780;50.942;4.028;2022-12-07T07:06:07;5.40;99.90
21244;DHT22;10780;50.942;4.028;2022-12-07T07:08:34;5.50;99.90
21244;DHT22;10780;50.942;4.028;2022-12-07T07:11:00;5.50;99.90
21244;DHT22;10780;50.942;4.028;2022-12-07T07:13:27;5.60;99.90
21244;DHT22;10780;50.942;4.028;2022-12-07T07:15:53;5.60;99.90
21244;DHT22;10780;50.942;4.028;2022-12-07T07:18:20;5.70;99.90
21244;DHT22;10780;50.942;4.028;2022-12-07T07:20:49;5.80;99.90
21244;DHT22;10780;50.942;4.028;2022-12-07T07:23:24;6.00;99.90
21244;DHT22;10780;50.942;4.028;2022-12-07T07:26:20;6.20;99.90
21244;DHT22;10780;50.942;4.028;2022-12-07T07:28:46;6.20;99.90
21244;DHT22;10780;50.942;4.028;2022-12-07T07:31:12;6.10;99.90
21244;DHT22;10780;50.942;4.028;2022-12-07T07:33:38;6.10;99.90
21244;DHT22;10780;50.942;4.028;2022-12-07T07:36:07;6.10;99.90
21244;DHT22;10780;50.942;4.028;2022-12-07T07:38:33;6.00;99.90
21244;DHT22;10780;50.942;4.028;2022-12-07T07:41:14;5.80;99.90
21244;DHT22;10780;50.942;4.028;2022-12-07T07:43:43;5.70;99.90
21244;DHT22;10780;50.942;4.028;2022-12-07T07:46:14;5.60;99.90
21244;DHT22;10780;50.942;4.028;2022-12-07T07:48:57;5.60;99.90
21244;DHT22;10780;50.942;4.028;2022-12-07T07:51:56;5.50;99.90
21244;DHT22;10780;50.942;4.028;2022-12-07T07:54:54;5.60;99.90
21244;DHT22;10780;50.942;4.028;2022-12-07T07:57:29;5.60;99.90
21244;DHT22;10780;50.942;4.028;2022-12-07T08:17:50;5.80;99.90
21244;DHT22;10780;50.942;4.028;2022-12-07T08:20:16;5.70;99.90
21244;DHT22;10780;50.942;4.028;2022-12-07T08:33:31;5.50;99.90
21244;DHT22;10780;50.942;4.028;2022-12-07T08:36:23;5.70;99.90
21244;DHT22;10780;50.942;4.028;2022-12-07T08:56:14;6.20;99.90
21244;DHT22;10780;50.942;4.028;2022-12-07T09:02:34;6.20;99.90
21244;DHT22;10780;50.942;4.028;2022-12-07T09:13:26;7.20;99.90
21244;DHT22;10780;50.942;4.028;2022-12-07T09:15:57;7.40;99.90
21244;DHT22;10780;50.942;4.028;2022-12-07T09:18:32;7.60;99.90
21244;DHT22;10780;50.942;4.028;2022-12-07T09:20:59;7.60;99.90
21244;DHT22;10780;50.942;4.028;2022-12-07T09:23:25;7.40;99.90
21244;DHT22;10780;50.942;4.028;2022-12-07T09:25:52;7.50;99.90
21244;DHT22;10780;50.942;4.028;2022-12-07T09:28:18;7.60;99.90
21244;DHT22;10780;50.942;4.028;2022-12-07T09:30:48;7.70;99.90
21244;DHT22;10780;50.942;4.028;2022-12-07T09:33:14;7.70;99.90
21244;DHT22;10780;50.942;4.028;2022-12-07T09:35:48;7.50;99.90
21244;DHT22;10780;50.942;4.028;2022-12-07T09:38:14;7.60;99.90
21244;DHT22;10780;50.942;4.028;2022-12-07T09:40:41;7.70;99.90
21244;DHT22;10780;50.942;4.028;2022-12-07T09:43:35;7.80;99.90
21244;DHT22;10780;50.942;4.028;2022-12-07T09:46:05;8.00;99.90
21244;DHT22;10780;50.942;4.028;2022-12-07T09:48:36;8.00;99.90
21244;DHT22;10780;50.942;4.028;2022-12-07T09:51:03;7.90;99.90
21244;DHT22;10780;50.942;4.028;2022-12-07T09:53:37;7.90;99.90
21244;DHT22;10780;50.942;4.028;2022-12-07T09:56:04;7.70;99.90
21244;DHT22;10780;50.942;4.028;2022-12-07T09:58:31;7.80;99.90
21244;DHT22;10780;50.942;4.028;2022-12-07T10:01:21;8.00;99.90
21244;DHT22;10780;50.942;4.028;2022-12-07T10:03:59;8.20;99.90
21244;DHT22;10780;50.942;4.028;2022-12-07T10:06:26;8.30;99.90
21244;DHT22;10780;50.942;4.028;2022-12-07T10:08:51;8.50;99.90
21244;DHT22;10780;50.942;4.028;2022-12-07T10:11:17;8.50;99.90
21244;DHT22;10780;50.942;4.028;2022-12-07T10:13:46;8.60;99.90
21244;DHT22;10780;50.942;4.028;2022-12-07T10:19:18;8.40;99.90
21244;DHT22;10780;50.942;4.028;2022-12-07T10:22:09;8.20;99.90
21244;DHT22;10780;50.942;4.028;2022-12-07T10:24:36;8.20;99.90
21244;DHT22;10780;50.942;4.028;2022-12-07T10:27:05;7.90;99.90
21244;DHT22;10780;50.942;4.028;2022-12-07T10:29:33;7.90;99.90
21244;DHT22;10780;50.942;4.028;2022-12-07T10:32:03;7.90;99.90
21244;DHT22;10780;50.942;4.028;2022-12-07T10:34:36;8.00;99.90
21244;DHT22;10780;50.942;4.028;2022-12-07T10:40:01;8.00;99.90
21244;DHT22;10780;50.942;4.028;2022-12-07T10:42:31;8.10;99.90
21244;DHT22;10780;50.942;4.028;2022-12-07T10:45:17;8.10;99.90
21244;DHT22;10780;50.942;4.028;2022-12-07T10:53:29;7.70;99.90
21244;DHT22;10780;50.942;4.028;2022-12-07T10:56:28;7.60;99.90
21244;DHT22;10780;50.942;4.028;2022-12-07T11:07:47;7.50;99.90
21244;DHT22;10780;50.942;4.028;2022-12-07T11:10:39;7.50;99.90
21244;DHT22;10780;50.942;4.028;2022-12-07T11:16:11;7.60;99.90
21244;DHT22;10780;50.942;4.028;2022-12-07T11:21:47;7.70;99.90
21244;DHT22;10780;50.942;4.028;2022-12-07T11:24:21;7.80;99.90
21244;DHT22;10780;50.942;4.028;2022-12-07T11:29:59;8.30;99.90
21244;DHT22;10780;50.942;4.028;2022-12-07T11:38:14;8.90;99.90
21244;DHT22;10780;50.942;4.028;2022-12-07T11:40:42;8.70;99.90
21244;DHT22;10780;50.942;4.028;2022-12-07T11:45:45;8.60;99.90
21244;DHT22;10780;50.942;4.028;2022-12-07T11:50:41;8.40;99.90
21244;DHT22;10780;50.942;4.028;2022-12-07T11:56:09;8.00;99.90
21244;DHT22;10780;50.942;4.028;2022-12-07T12:01:29;8.00;99.90
21244;DHT22;10780;50.942;4.028;2022-12-07T12:04:17;8.00;99.90
21244;DHT22;10780;50.942;4.028;2022-12-07T12:06:45;8.10;99.90
21244;DHT22;10780;50.942;4.028;2022-12-07T12:09:32;8.30;99.90
21244;DHT22;10780;50.942;4.028;2022-12-07T12:14:52;8.40;99.90
21244;DHT22;10780;50.942;4.028;2022-12-07T12:17:44;8.50;99.90
21244;DHT22;10780;50.942;4.028;2022-12-07T12:20:47;8.60;99.90
21244;DHT22;10780;50.942;4.028;2022-12-07T12:23:18;8.70;99.90
21244;DHT22;10780;50.942;4.028;2022-12-07T12:25:50;8.70;99.90
21244;DHT22;10780;50.942;4.028;2022-12-07T12:28:22;8.80;99.90
21244;DHT22;10780;50.942;4.028;2022-12-07T12:33:31;8.80;99.90
21244;DHT22;10780;50.942;4.028;2022-12-07T12:46:58;8.30;99.90
21244;DHT22;10780;50.942;4.028;2022-12-07T12:54:27;8.00;99.90
21244;DHT22;10780;50.942;4.028;2022-12-07T12:57:05;7.90;99.90
21244;DHT22;10780;50.942;4.028;2022-12-07T13:02:34;7.90;99.90
21244;DHT22;10780;50.942;4.028;2022-12-07T13:13:03;8.00;99.90
21244;DHT22;10780;50.942;4.028;2022-12-07T13:18:38;8.20;99.90
21244;DHT22;10780;50.942;4.028;2022-12-07T13:28:42;8.60;99.90
21244;DHT22;10780;50.942;4.028;2022-12-07T13:33:47;8.70;99.90
21244;DHT22;10780;50.942;4.028;2022-12-07T13:38:58;8.90;99.90
21244;DHT22;10780;50.942;4.028;2022-12-07T13:41:28;9.00;99.90
21244;DHT22;10780;50.942;4.028;2022-12-07T13:44:10;8.90;99.90
21244;DHT22;10780;50.942;4.028;2022-12-07T13:46:49;8.90;99.90
21244;DHT22;10780;50.942;4.028;2022-12-07T13:49:25;8.90;99.90
21244;DHT22;10780;50.942;4.028;2022-12-07T13:51:51;8.90;99.90
21244;DHT22;10780;50.942;4.028;2022-12-07T13:54:19;8.80;99.90
21244;DHT22;10780;50.942;4.028;2022-12-07T13:56:49;8.70;99.90
21244;DHT22;10780;50.942;4.028;2022-12-07T13:59:22;8.70;99.90
21244;DHT22;10780;50.942;4.028;2022-12-07T14:01:49;8.80;99.90
21244;DHT22;10780;50.942;4.028;2022-12-07T14:04:36;8.70;99.90
21244;DHT22;10780;50.942;4.028;2022-12-07T14:07:26;8.70;99.90
21244;DHT22;10780;50.942;4.028;2022-12-07T14:10:28;8.70;99.90
21244;DHT22;10780;50.942;4.028;2022-12-07T14:12:55;8.70;99.90
21244;DHT22;10780;50.942;4.028;2022-12-07T14:15:27;8.70;99.90
21244;DHT22;10780;50.942;4.028;2022-12-07T14:17:55;8.50;99.90
21244;DHT22;10780;50.942;4.028;2022-12-07T14:20:33;8.20;99.90
21244;DHT22;10780;50.942;4.028;2022-12-07T14:22:59;8.10;99.90
21244;DHT22;10780;50.942;4.028;2022-12-07T14:25:26;8.20;99.90
21244;DHT22;10780;50.942;4.028;2022-12-07T14:27:58;8.30;99.90
21244;DHT22;10780;50.942;4.028;2022-12-07T14:30:30;8.30;99.90
21244;DHT22;10780;50.942;4.028;2022-12-07T14:33:01;8.40;99.90
21244;DHT22;10780;50.942;4.028;2022-12-07T14:35:28;8.50;99.90
21244;DHT22;10780;50.942;4.028;2022-12-07T14:37:54;8.60;99.90
21244;DHT22;10780;50.942;4.028;2022-12-07T14:40:22;8.60;99.90
21244;DHT22;10780;50.942;4.028;2022-12-07T14:42:53;8.50;99.90
21244;DHT22;10780;50.942;4.028;2022-12-07T14:45:21;8.70;99.90
21244;DHT22;10780;50.942;4.028;2022-12-07T14:47:47;8.80;99.90
21244;DHT22;10780;50.942;4.028;2022-12-07T14:50:16;8.50;99.90
21244;DHT22;10780;50.942;4.028;2022-12-07T14:52:55;8.30;99.90
21244;DHT22;10780;50.942;4.028;2022-12-07T14:55:27;8.10;99.90
21244;DHT22;10780;50.942;4.028;2022-12-07T14:57:54;8.20;99.90
21244;DHT22;10780;50.942;4.028;2022-12-07T15:00:21;8.00;99.90
21244;DHT22;10780;50.942;4.028;2022-12-07T15:02:48;7.90;99.90
21244;DHT22;10780;50.942;4.028;2022-12-07T15:05:15;7.60;99.90
21244;DHT22;10780;50.942;4.028;2022-12-07T15:07:41;7.20;99.90
21244;DHT22;10780;50.942;4.028;2022-12-07T15:12:40;6.70;99.90
21244;DHT22;10780;50.942;4.028;2022-12-07T15:15:06;6.60;99.90
21244;DHT22;10780;50.942;4.028;2022-12-07T15:17:32;6.60;99.90
21244;DHT22;10780;50.942;4.028;2022-12-07T15:19:57;6.60;99.90
21244;DHT22;10780;50.942;4.028;2022-12-07T15:22:23;6.50;99.90
21244;DHT22;10780;50.942;4.028;2022-12-07T15:24:48;6.60;99.90
21244;DHT22;10780;50.942;4.028;2022-12-07T15:27:14;6.80;99.90
21244;DHT22;10780;50.942;4.028;2022-12-07T15:29:40;7.00;99.90
21244;DHT22;10780;50.942;4.028;2022-12-07T15:32:05;7.20;99.90
21244;DHT22;10780;50.942;4.028;2022-12-07T15:34:31;7.20;99.90
21244;DHT22;10780;50.942;4.028;2022-12-07T15:36:57;6.90;99.90
21244;DHT22;10780;50.942;4.028;2022-12-07T15:39:23;6.80;99.90
21244;DHT22;10780;50.942;4.028;2022-12-07T15:41:49;6.80;99.90
21244;DHT22;10780;50.942;4.028;2022-12-07T15:44:14;6.80;99.90
21244;DHT22;10780;50.942;4.028;2022-12-07T15:47:00;6.90;99.90
21244;DHT22;10780;50.942;4.028;2022-12-07T15:49:26;7.00;99.90
21244;DHT22;10780;50.942;4.028;2022-12-07T15:51:53;7.10;99.90
21244;DHT22;10780;50.942;4.028;2022-12-07T15:54:29;6.90;99.90
21244;DHT22;10780;50.942;4.028;2022-12-07T15:56:55;6.90;99.90
21244;DHT22;10780;50.942;4.028;2022-12-07T15:59:21;6.80;99.90
21244;DHT22;10780;50.942;4.028;2022-12-07T16:01:47;6.80;99.90
21244;DHT22;10780;50.942;4.028;2022-12-07T16:04:12;6.90;99.90
21244;DHT22;10780;50.942;4.028;2022-12-07T16:06:38;6.90;99.90
21244;DHT22;10780;50.942;4.028;2022-12-07T16:09:04;6.90;99.90
21244;DHT22;10780;50.942;4.028;2022-12-07T16:11:31;7.10;99.90
21244;DHT22;10780;50.942;4.028;2022-12-07T16:13:57;6.90;99.90
21244;DHT22;10780;50.942;4.028;2022-12-07T16:16:22;6.90;99.90
21244;DHT22;10780;50.942;4.028;2022-12-07T16:18:49;6.90;99.90
21244;DHT22;10780;50.942;4.028;2022-12-07T16:21:16;6.80;99.90
21244;DHT22;10780;50.942;4.028;2022-12-07T16:23:42;6.80;99.90
21244;DHT22;10780;50.942;4.028;2022-12-07T16:26:16;6.70;99.90
21244;DHT22;10780;50.942;4.028;2022-12-07T16:28:42;6.90;99.90
21244;DHT22;10780;50.942;4.028;2022-12-07T16:31:11;6.70;99.90
21244;DHT22;10780;50.942;4.028;2022-12-07T16:33:39;6.80;99.90
21244;DHT22;10780;50.942;4.028;2022-12-07T16:36:06;6.70;99.90
21244;DHT22;10780;50.942;4.028;2022-12-07T16:38:33;6.80;99.90
21244;DHT22;10780;50.942;4.028;2022-12-07T16:40:59;6.90;99.90
21244;DHT22;10780;50.942;4.028;2022-12-07T16:43:25;7.00;99.90
21244;DHT22;10780;50.942;4.028;2022-12-07T16:45:51;7.10;99.90
21244;DHT22;10780;50.942;4.028;2022-12-07T16:48:17;7.20;99.90
21244;DHT22;10780;50.942;4.028;2022-12-07T16:50:43;7.30;99.90
21244;DHT22;10780;50.942;4.028;2022-12-07T16:53:10;7.40;99.90
21244;DHT22;10780;50.942;4.028;2022-12-07T16:55:41;7.50;99.90
21244;DHT22;10780;50.942;4.028;2022-12-07T16:58:07;7.30;99.90
21244;DHT22;10780;50.942;4.028;2022-12-07T17:00:33;7.20;99.90
21244;DHT22;10780;50.942;4.028;2022-12-07T17:02:59;6.80;99.90
21244;DHT22;10780;50.942;4.028;2022-12-07T17:05:25;6.70;99.90
21244;DHT22;10780;50.942;4.028;2022-12-07T17:07:53;6.50;99.90
21244;DHT22;10780;50.942;4.028;2022-12-07T17:10:19;6.40;99.90
21244;DHT22;10780;50.942;4.028;2022-12-07T17:12:45;6.20;99.90
21244;DHT22;10780;50.942;4.028;2022-12-07T17:15:11;6.20;99.90
21244;DHT22;10780;50.942;4.028;2022-12-07T17:18:01;6.30;99.90
21244;DHT22;10780;50.942;4.028;2022-12-07T17:20:27;6.50;99.90
21244;DHT22;10780;50.942;4.028;2022-12-07T17:22:53;6.80;99.90
21244;DHT22;10780;50.942;4.028;2022-12-07T17:25:19;6.80;99.90
21244;DHT22;10780;50.942;4.028;2022-12-07T17:27:45;6.80;99.90
21244;DHT22;10780;50.942;4.028;2022-12-07T17:30:12;6.70;99.90
21244;DHT22;10780;50.942;4.028;2022-12-07T17:32:38;6.70;99.90
21244;DHT22;10780;50.942;4.028;2022-12-07T17:35:04;6.60;99.90
21244;DHT22;10780;50.942;4.028;2022-12-07T17:37:31;6.40;99.90
21244;DHT22;10780;50.942;4.028;2022-12-07T17:39:57;6.50;99.90
21244;DHT22;10780;50.942;4.028;2022-12-07T17:42:26;6.50;99.90
21244;DHT22;10780;50.942;4.028;2022-12-07T17:45:02;6.60;99.90
21244;DHT22;10780;50.942;4.028;2022-12-07T17:47:28;6.60;99.90
21244;DHT22;10780;50.942;4.028;2022-12-07T17:49:53;6.50;99.90
21244;DHT22;10780;50.942;4.028;2022-12-07T17:52:19;6.40;99.90
21244;DHT22;10780;50.942;4.028;2022-12-07T17:55:03;6.30;99.90
21244;DHT22;10780;50.942;4.028;2022-12-07T17:57:29;6.30;99.90
21244;DHT22;10780;50.942;4.028;2022-12-07T17:59:55;6.20;99.90
21244;DHT22;10780;50.942;4.028;2022-12-07T18:02:21;6.00;99.90
21244;DHT22;10780;50.942;4.028;2022-12-07T18:04:46;5.90;99.90
21244;DHT22;10780;50.942;4.028;2022-12-07T18:07:13;5.90;99.90
21244;DHT22;10780;50.942;4.028;2022-12-07T18:09:38;5.80;99.90
21244;DHT22;10780;50.942;4.028;2022-12-07T18:12:05;5.80;99.90
21244;DHT22;10780;50.942;4.028;2022-12-07T18:14:31;5.80;99.90
21244;DHT22;10780;50.942;4.028;2022-12-07T18:16:57;5.80;99.90
21244;DHT22;10780;50.942;4.028;2022-12-07T18:19:22;5.70;99.90
21244;DHT22;10780;50.942;4.028;2022-12-07T18:21:48;5.70;99.90
21244;DHT22;10780;50.942;4.028;2022-12-07T18:24:15;5.70;99.90
21244;DHT22;10780;50.942;4.028;2022-12-07T18:26:42;5.60;99.90
21244;DHT22;10780;50.942;4.028;2022-12-07T18:29:13;5.50;99.90
21244;DHT22;10780;50.942;4.028;2022-12-07T18:31:39;5.40;99.90
21244;DHT22;10780;50.942;4.028;2022-12-07T18:34:06;5.30;99.90
21244;DHT22;10780;50.942;4.028;2022-12-07T18:36:37;5.30;99.90
21244;DHT22;10780;50.942;4.028;2022-12-07T18:39:06;5.20;99.90
21244;DHT22;10780;50.942;4.028;2022-12-07T18:41:32;5.10;99.90
21244;DHT22;10780;50.942;4.028;2022-12-07T18:43:58;5.10;99.90
21244;DHT22;10780;50.942;4.028;2022-12-07T18:46:23;5.20;99.90
21244;DHT22;10780;50.942;4.028;2022-12-07T18:48:49;5.20;99.90
21244;DHT22;10780;50.942;4.028;2022-12-07T18:51:16;5.40;99.90
21244;DHT22;10780;50.942;4.028;2022-12-07T18:53:42;5.40;99.90
21244;DHT22;10780;50.942;4.028;2022-12-07T18:56:20;5.60;99.90
21244;DHT22;10780;50.942;4.028;2022-12-07T18:58:50;5.60;99.90
21244;DHT22;10780;50.942;4.028;2022-12-07T19:01:35;5.60;99.90
21244;DHT22;10780;50.942;4.028;2022-12-07T19:04:01;5.50;99.90
21244;DHT22;10780;50.942;4.028;2022-12-07T19:06:27;5.50;99.90
21244;DHT22;10780;50.942;4.028;2022-12-07T19:08:54;5.40;99.90